sensor_id;sensor_type;location;lat;lon;timestamp;temperature;humidity
26262;DHT22;13988;52.446;13.280;2022-07-04T00:00:12;21.20;99.90
26262;DHT22;13988;52.446;13.280;2022-07-04T00:02:39;21.10;99.90
26262;DHT22;13988;52.446;13.280;2022-07-04T00:05:06;21.10;99.90
26262;DHT22;13988;52.446;13.280;2022-07-04T00:07:36;21.10;99.90
26262;DHT22;13988;52.446;13.280;2022-07-04T00:10:02;21.10;99.90
26262;DHT22;13988;52.446;13.280;2022-07-04T00:12:27;21.00;99.90
26262;DHT22;13988;52.446;13.280;2022-07-04T00:14:53;21.00;99.90
26262;DHT22;13988;52.446;13.280;2022-07-04T00:17:19;21.00;99.90
26262;DHT22;13988;52.446;13.280;2022-07-04T00:19:44;20.80;99.90
26262;DHT22;13988;52.446;13.280;2022-07-04T00:22:10;20.70;99.90
26262;DHT22;13988;52.446;13.280;2022-07-04T00:24:35;20.60;99.90
26262;DHT22;13988;52.446;13.280;2022-07-04T00:27:01;20.40;99.90
26262;DHT22;13988;52.446;13.280;2022-07-04T00:29:26;20.40;99.90
26262;DHT22;13988;52.446;13.280;2022-07-04T00:31:52;20.30;99.90
26262;DHT22;13988;52.446;13.280;2022-07-04T00:34:17;20.20;99.90
26262;DHT22;13988;52.446;13.280;2022-07-04T00:36:43;20.10;99.90
26262;DHT22;13988;52.446;13.280;2022-07-04T00:39:09;20.00;99.90
26262;DHT22;13988;52.446;13.280;2022-07-04T00:41:34;20.20;99.90
26262;DHT22;13988;52.446;13.280;2022-07-04T00:44:08;20.00;99.90
26262;DHT22;13988;52.446;13.280;2022-07-04T00:46:35;20.10;99.90
26262;DHT22;13988;52.446;13.280;2022-07-04T00:49:01;20.10;99.90
26262;DHT22;13988;52.446;13.280;2022-07-04T00:51:28;20.30;99.90
26262;DHT22;13988;52.446;13.280;2022-07-04T00:53:54;20.30;99.90
26262;DHT22;13988;52.446;13.280;2022-07-04T00:56:21;20.20;99.90
26262;DHT22;13988;52.446;13.280;2022-07-04T00:58:47;20.20;99.90
26262;DHT22;13988;52.446;13.280;2022-07-04T01:01:13;20.30;99.90
26262;DHT22;13988;52.446;13.280;2022-07-04T01:03:38;20.10;99.90
26262;DHT22;13988;52.446;13.280;2022-07-04T01:06:04;20.20;99.90
26262;DHT22;13988;52.446;13.280;2022-07-04T01:08:35;20.20;99.90
26262;DHT22;13988;52.446;13.280;2022-07-04T01:11:01;20.00;99.90
26262;DHT22;13988;52.446;13.280;2022-07-04T01:13:27;20.00;99.90
26262;DHT22;13988;52.446;13.280;2022-07-04T01:15:52;19.90;99.90
26262;DHT22;13988;52.446;13.280;2022-07-04T01:18:18;19.80;99.90
26262;DHT22;13988;52.446;13.280;2022-07-04T01:20:44;19.90;99.90
26262;DHT22;13988;52.446;13.280;2022-07-04T01:23:10;19.80;99.90
26262;DHT22;13988;52.446;13.280;2022-07-04T01:25:36;19.70;99.90
26262;DHT22;13988;52.446;13.280;2022-07-04T01:28:02;19.60;99.90
26262;DHT22;13988;52.446;13.280;2022-07-04T01:30:29;19.60;99.90
26262;DHT22;13988;52.446;13.280;2022-07-04T01:32:55;19.50;99.90
26262;DHT22;13988;52.446;13.280;2022-07-04T01:35:21;19.50;99.90
26262;DHT22;13988;52.446;13.280;2022-07-04T01:37:47;19.40;99.90
26262;DHT22;13988;52.446;13.280;2022-07-04T01:40:13;19.30;99.90
26262;DHT22;13988;52.446;13.280;2022-07-04T01:42:39;19.40;99.90
26262;DHT22;13988;52.446;13.280;2022-07-04T01:45:06;19.30;99.90
26262;DHT22;13988;52.446;13.280;2022-07-04T01:47:32;19.20;99.90
26262;DHT22;13988;52.446;13.280;2022-07-04T01:49:58;19.20;99.90
26262;DHT22;13988;52.446;13.280;2022-07-04T01:52:24;19.10;99.90
26262;DHT22;13988;52.446;13.280;2022-07-04T01:54:50;19.00;99.90
26262;DHT22;13988;52.446;13.280;2022-07-04T01:57:15;18.80;99.90
26262;DHT22;13988;52.446;13.280;2022-07-04T01:59:41;18.80;99.90
26262;DHT22;13988;52.446;13.280;2022-07-04T02:02:25;18.70;99.90
26262;DHT22;13988;52.446;13.280;2022-07-04T02:04:51;18.90;99.90
26262;DHT22;13988;52.446;13.280;2022-07-04T02:07:17;18.50;99.90
26262;DHT22;13988;52.446;13.280;2022-07-04T02:09:42;18.60;99.90
26262;DHT22;13988;52.446;13.280;2022-07-04T02:12:08;18.50;99.90
26262;DHT22;13988;52.446;13.280;2022-07-04T02:14:52;18.50;99.90
26262;DHT22;13988;52.446;13.280;2022-07-04T02:17:18;18.80;99.90
26262;DHT22;13988;52.446;13.280;2022-07-04T02:19:44;18.60;99.90
26262;DHT22;13988;52.446;13.280;2022-07-04T02:22:10;18.50;99.90
26262;DHT22;13988;52.446;13.280;2022-07-04T02:24:36;18.30;99.90
26262;DHT22;13988;52.446;13.280;2022-07-04T02:27:01;18.50;99.90
26262;DHT22;13988;52.446;13.280;2022-07-04T02:29:27;18.50;99.90
26262;DHT22;13988;52.446;13.280;2022-07-04T02:31:53;18.40;99.90
26262;DHT22;13988;52.446;13.280;2022-07-04T02:34:19;18.40;99.90
26262;DHT22;13988;52.446;13.280;2022-07-04T02:36:45;18.50;99.90
26262;DHT22;13988;52.446;13.280;2022-07-04T02:39:10;18.50;99.90
26262;DHT22;13988;52.446;13.280;2022-07-04T02:41:36;18.30;99.90
26262;DHT22;13988;52.446;13.280;2022-07-04T02:44:02;18.10;99.90
26262;DHT22;13988;52.446;13.280;2022-07-04T02:46:28;18.10;99.90
26262;DHT22;13988;52.446;13.280;2022-07-04T02:48:54;18.20;99.90
26262;DHT22;13988;52.446;13.280;2022-07-04T02:51:20;18.10;99.90
26262;DHT22;13988;52.446;13.280;2022-07-04T02:53:45;18.20;99.90
26262;DHT22;13988;52.446;13.280;2022-07-04T02:56:11;18.40;99.90
26262;DHT22;13988;52.446;13.280;2022-07-04T02:58:37;18.40;99.90
26262;DHT22;13988;52.446;13.280;2022-07-04T03:01:02;18.30;99.90
26262;DHT22;13988;52.446;13.280;2022-07-04T03:03:28;18.40;99.90
26262;DHT22;13988;52.446;13.280;2022-07-04T03:05:54;18.40;99.90
26262;DHT22;13988;52.446;13.280;2022-07-04T03:08:19;18.10;99.90
26262;DHT22;13988;52.446;13.280;2022-07-04T03:10:45;18.10;99.90
26262;DHT22;13988;52.446;13.280;2022-07-04T03:13:11;18.20;99.90
26262;DHT22;13988;52.446;13.280;2022-07-04T03:15:36;18.20;99.90
26262;DHT22;13988;52.446;13.280;2022-07-04T03:18:02;18.20;99.90
26262;DHT22;13988;52.446;13.280;2022-07-04T03:20:28;18.20;99.90
26262;DHT22;13988;52.446;13.280;2022-07-04T03:22:53;18.20;99.90
26262;DHT22;13988;52.446;13.280;2022-07-04T03:25:20;18.20;99.90
26262;DHT22;13988;52.446;13.280;2022-07-04T03:27:46;18.10;99.90
26262;DHT22;13988;52.446;13.280;2022-07-04T03:30:12;17.90;99.90
26262;DHT22;13988;52.446;13.280;2022-07-04T03:32:38;17.80;99.90
26262;DHT22;13988;52.446;13.280;2022-07-04T03:35:04;17.80;99.90
26262;DHT22;13988;52.446;13.280;2022-07-04T03:37:30;18.00;99.90
26262;DHT22;13988;52.446;13.280;2022-07-04T03:39:56;17.90;99.90
26262;DHT22;13988;52.446;13.280;2022-07-04T03:42:22;18.00;99.90
26262;DHT22;13988;52.446;13.280;2022-07-04T03:44:47;18.00;99.90
26262;DHT22;13988;52.446;13.280;2022-07-04T03:47:13;18.00;99.90
26262;DHT22;13988;52.446;13.280;2022-07-04T03:49:38;17.70;99.90
26262;DHT22;13988;52.446;13.280;2022-07-04T03:52:04;17.80;99.90
26262;DHT22;13988;52.446;13.280;2022-07-04T03:54:30;17.70;99.90
26262;DHT22;13988;52.446;13.280;2022-07-04T03:56:55;17.70;99.90
26262;DHT22;13988;52.446;13.280;2022-07-04T03:59:21;17.70;99.90
26262;DHT22;13988;52.446;13.280;2022-07-04T04:01:47;17.60;99.90
26262;DHT22;13988;52.446;13.280;2022-07-04T04:04:12;17.90;99.90
26262;DHT22;13988;52.446;13.280;2022-07-04T04:06:57;18.00;99.90
26262;DHT22;13988;52.446;13.280;2022-07-04T04:09:22;17.80;99.90
26262;DHT22;13988;52.446;13.280;2022-07-04T04:11:50;17.70;99.90
26262;DHT22;13988;52.446;13.280;2022-07-04T04:14:16;18.10;99.90
26262;DHT22;13988;52.446;13.280;2022-07-04T04:16:41;18.10;99.90
26262;DHT22;13988;52.446;13.280;2022-07-04T04:19:11;18.00;99.90
26262;DHT22;13988;52.446;13.280;2022-07-04T04:21:36;17.90;99.90
26262;DHT22;13988;52.446;13.280;2022-07-04T04:24:03;17.90;99.90
26262;DHT22;13988;52.446;13.280;2022-07-04T04:26:29;17.90;99.90
26262;DHT22;13988;52.446;13.280;2022-07-04T04:28:55;17.70;99.90
26262;DHT22;13988;52.446;13.280;2022-07-04T04:31:21;17.80;99.90
26262;DHT22;13988;52.446;13.280;2022-07-04T04:33:46;17.90;99.90
26262;DHT22;13988;52.446;13.280;2022-07-04T04:36:12;17.90;99.90
26262;DHT22;13988;52.446;13.280;2022-07-04T04:38:38;18.10;99.90
26262;DHT22;13988;52.446;13.280;2022-07-04T04:41:03;18.10;99.90
26262;DHT22;13988;52.446;13.280;2022-07-04T04:43:29;18.20;99.90
26262;DHT22;13988;52.446;13.280;2022-07-04T04:45:54;18.10;99.90
26262;DHT22;13988;52.446;13.280;2022-07-04T04:48:20;18.10;99.90
26262;DHT22;13988;52.446;13.280;2022-07-04T04:50:46;18.20;99.90
26262;DHT22;13988;52.446;13.280;2022-07-04T04:53:12;18.10;99.90
26262;DHT22;13988;52.446;13.280;2022-07-04T04:55:38;18.20;99.90
26262;DHT22;13988;52.446;13.280;2022-07-04T04:58:03;18.20;99.90
26262;DHT22;13988;52.446;13.280;2022-07-04T05:00:29;18.10;99.90
26262;DHT22;13988;52.446;13.280;2022-07-04T05:02:55;18.30;99.90
26262;DHT22;13988;52.446;13.280;2022-07-04T05:05:20;18.50;99.90
26262;DHT22;13988;52.446;13.280;2022-07-04T05:07:46;18.50;99.90
26262;DHT22;13988;52.446;13.280;2022-07-04T05:10:12;18.60;99.90
26262;DHT22;13988;52.446;13.280;2022-07-04T05:12:38;18.80;99.90
26262;DHT22;13988;52.446;13.280;2022-07-04T05:15:03;19.10;99.90
26262;DHT22;13988;52.446;13.280;2022-07-04T05:17:29;19.00;99.90
26262;DHT22;13988;52.446;13.280;2022-07-04T05:19:55;18.80;99.90
26262;DHT22;13988;52.446;13.280;2022-07-04T05:22:20;18.70;99.90
26262;DHT22;13988;52.446;13.280;2022-07-04T05:24:46;18.60;99.90
26262;DHT22;13988;52.446;13.280;2022-07-04T05:27:12;18.70;99.90
26262;DHT22;13988;52.446;13.280;2022-07-04T05:29:38;18.80;99.90
26262;DHT22;13988;52.446;13.280;2022-07-04T05:32:04;18.80;99.90
26262;DHT22;13988;52.446;13.280;2022-07-04T05:34:30;18.90;99.90
26262;DHT22;13988;52.446;13.280;2022-07-04T05:36:56;18.70;99.90
26262;DHT22;13988;52.446;13.280;2022-07-04T05:39:21;18.50;99.90
26262;DHT22;13988;52.446;13.280;2022-07-04T05:41:47;18.50;99.90
26262;DHT22;13988;52.446;13.280;2022-07-04T05:44:13;18.50;99.90
26262;DHT22;13988;52.446;13.280;2022-07-04T05:46:38;18.70;99.90
26262;DHT22;13988;52.446;13.280;2022-07-04T05:49:04;19.00;99.90
26262;DHT22;13988;52.446;13.280;2022-07-04T05:51:29;19.40;99.90
26262;DHT22;13988;52.446;13.280;2022-07-04T05:53:55;19.30;99.90
26262;DHT22;13988;52.446;13.280;2022-07-04T05:56:21;18.90;99.90
26262;DHT22;13988;52.446;13.280;2022-07-04T05:58:47;19.00;99.90
26262;DHT22;13988;52.446;13.280;2022-07-04T06:01:13;18.90;99.90
26262;DHT22;13988;52.446;13.280;2022-07-04T06:03:38;18.90;99.90
26262;DHT22;13988;52.446;13.280;2022-07-04T06:06:04;18.90;99.90
26262;DHT22;13988;52.446;13.280;2022-07-04T06:08:31;19.10;99.90
26262;DHT22;13988;52.446;13.280;2022-07-04T06:10:56;19.40;99.90
26262;DHT22;13988;52.446;13.280;2022-07-04T06:13:22;20.90;99.90
26262;DHT22;13988;52.446;13.280;2022-07-04T06:15:48;21.50;99.90
26262;DHT22;13988;52.446;13.280;2022-07-04T06:18:14;22.10;99.90
26262;DHT22;13988;52.446;13.280;2022-07-04T06:20:40;22.30;99.90
26262;DHT22;13988;52.446;13.280;2022-07-04T06:23:06;22.60;99.90
26262;DHT22;13988;52.446;13.280;2022-07-04T06:25:33;23.40;99.90
26262;DHT22;13988;52.446;13.280;2022-07-04T06:27:58;23.10;99.90
26262;DHT22;13988;52.446;13.280;2022-07-04T06:30:24;23.40;99.90
26262;DHT22;13988;52.446;13.280;2022-07-04T06:32:52;23.90;99.90
26262;DHT22;13988;52.446;13.280;2022-07-04T06:35:21;23.30;99.90
26262;DHT22;13988;52.446;13.280;2022-07-04T06:38:06;23.60;99.90
26262;DHT22;13988;52.446;13.280;2022-07-04T06:40:32;23.60;99.90
26262;DHT22;13988;52.446;13.280;2022-07-04T06:42:58;23.50;99.90
26262;DHT22;13988;52.446;13.280;2022-07-04T06:45:24;23.30;99.90
26262;DHT22;13988;52.446;13.280;2022-07-04T06:47:50;23.50;99.90
26262;DHT22;13988;52.446;13.280;2022-07-04T06:50:15;24.80;99.90
26262;DHT22;13988;52.446;13.280;2022-07-04T06:52:41;24.30;99.90
26262;DHT22;13988;52.446;13.280;2022-07-04T06:55:07;24.50;99.90
26262;DHT22;13988;52.446;13.280;2022-07-04T06:57:33;24.90;99.90
26262;DHT22;13988;52.446;13.280;2022-07-04T06:59:58;24.50;99.90
26262;DHT22;13988;52.446;13.280;2022-07-04T07:02:24;25.00;99.90
26262;DHT22;13988;52.446;13.280;2022-07-04T07:04:50;25.50;99.90
26262;DHT22;13988;52.446;13.280;2022-07-04T07:07:15;25.90;99.90
26262;DHT22;13988;52.446;13.280;2022-07-04T07:09:41;24.50;99.90
26262;DHT22;13988;52.446;13.280;2022-07-04T07:12:06;24.30;99.90
26262;DHT22;13988;52.446;13.280;2022-07-04T07:14:33;25.10;99.90
26262;DHT22;13988;52.446;13.280;2022-07-04T07:16:58;26.20;99.90
26262;DHT22;13988;52.446;13.280;2022-07-04T07:19:24;26.80;99.90
26262;DHT22;13988;52.446;13.280;2022-07-04T07:21:50;26.00;99.90
26262;DHT22;13988;52.446;13.280;2022-07-04T07:24:16;25.50;99.90
26262;DHT22;13988;52.446;13.280;2022-07-04T07:26:41;25.10;99.90
26262;DHT22;13988;52.446;13.280;2022-07-04T07:29:07;24.50;99.90
26262;DHT22;13988;52.446;13.280;2022-07-04T07:31:32;24.20;99.90
26262;DHT22;13988;52.446;13.280;2022-07-04T07:33:58;22.80;99.90
26262;DHT22;13988;52.446;13.280;2022-07-04T07:36:23;22.40;99.90
26262;DHT22;13988;52.446;13.280;2022-07-04T07:38:49;21.70;99.90
26262;DHT22;13988;52.446;13.280;2022-07-04T07:41:15;21.70;99.90
26262;DHT22;13988;52.446;13.280;2022-07-04T07:43:40;21.70;99.90
26262;DHT22;13988;52.446;13.280;2022-07-04T07:46:07;21.60;99.90
26262;DHT22;13988;52.446;13.280;2022-07-04T07:48:33;21.30;99.90
26262;DHT22;13988;52.446;13.280;2022-07-04T07:50:59;21.10;99.90
26262;DHT22;13988;52.446;13.280;2022-07-04T07:53:25;21.20;99.90
26262;DHT22;13988;52.446;13.280;2022-07-04T07:55:51;21.20;99.90
26262;DHT22;13988;52.446;13.280;2022-07-04T07:58:17;21.20;99.90
26262;DHT22;13988;52.446;13.280;2022-07-04T08:00:43;20.90;99.90
26262;DHT22;13988;52.446;13.280;2022-07-04T08:03:08;21.10;99.90
26262;DHT22;13988;52.446;13.280;2022-07-04T08:05:53;21.40;99.90
26262;DHT22;13988;52.446;13.280;2022-07-04T08:08:18;21.60;99.90
26262;DHT22;13988;52.446;13.280;2022-07-04T08:10:44;21.50;99.90
26262;DHT22;13988;52.446;13.280;2022-07-04T08:13:09;21.20;99.90
26262;DHT22;13988;52.446;13.280;2022-07-04T08:15:35;21.20;99.90
26262;DHT22;13988;52.446;13.280;2022-07-04T08:18:02;21.10;99.90
26262;DHT22;13988;52.446;13.280;2022-07-04T08:20:27;21.30;99.90
26262;DHT22;13988;52.446;13.280;2022-07-04T08:22:53;22.00;99.90
26262;DHT22;13988;52.446;13.280;2022-07-04T08:25:19;23.80;99.90
26262;DHT22;13988;52.446;13.280;2022-07-04T08:27:45;24.20;99.90
26262;DHT22;13988;52.446;13.280;2022-07-04T08:30:11;22.90;99.90
26262;DHT22;13988;52.446;13.280;2022-07-04T08:32:36;22.00;99.90
26262;DHT22;13988;52.446;13.280;2022-07-04T08:35:03;22.20;99.90
26262;DHT22;13988;52.446;13.280;2022-07-04T08:37:29;22.20;99.90
26262;DHT22;13988;52.446;13.280;2022-07-04T08:39:55;22.40;99.90
26262;DHT22;13988;52.446;13.280;2022-07-04T08:42:22;22.30;99.90
26262;DHT22;13988;52.446;13.280;2022-07-04T08:44:57;22.40;99.90
26262;DHT22;13988;52.446;13.280;2022-07-04T08:47:24;22.50;99.90
26262;DHT22;13988;52.446;13.280;2022-07-04T08:50:21;22.70;99.90
26262;DHT22;13988;52.446;13.280;2022-07-04T08:52:54;22.20;99.90
26262;DHT22;13988;52.446;13.280;2022-07-04T08:55:21;22.00;99.90
26262;DHT22;13988;52.446;13.280;2022-07-04T08:58:06;22.10;99.90
26262;DHT22;13988;52.446;13.280;2022-07-04T09:00:54;22.60;99.90
26262;DHT22;13988;52.446;13.280;2022-07-04T09:03:20;22.40;99.90
26262;DHT22;13988;52.446;13.280;2022-07-04T09:05:47;22.60;99.90
26262;DHT22;13988;52.446;13.280;2022-07-04T09:08:12;22.00;99.90
26262;DHT22;13988;52.446;13.280;2022-07-04T09:10:38;21.70;99.90
26262;DHT22;13988;52.446;13.280;2022-07-04T09:13:06;21.90;99.90
26262;DHT22;13988;52.446;13.280;2022-07-04T09:15:32;21.90;99.90
26262;DHT22;13988;52.446;13.280;2022-07-04T09:17:59;21.50;99.90
26262;DHT22;13988;52.446;13.280;2022-07-04T09:20:27;21.70;99.90
26262;DHT22;13988;52.446;13.280;2022-07-04T09:22:54;21.80;99.90
26262;DHT22;13988;52.446;13.280;2022-07-04T09:25:21;22.10;99.90
26262;DHT22;13988;52.446;13.280;2022-07-04T09:27:49;22.50;99.90
26262;DHT22;13988;52.446;13.280;2022-07-04T09:30:21;22.70;99.90
26262;DHT22;13988;52.446;13.280;2022-07-04T09:32:49;22.50;99.90
26262;DHT22;13988;52.446;13.280;2022-07-04T09:35:17;22.40;99.90
26262;DHT22;13988;52.446;13.280;2022-07-04T09:37:45;22.70;99.90
26262;DHT22;13988;52.446;13.280;2022-07-04T09:40:35;23.00;99.90
26262;DHT22;13988;52.446;13.280;2022-07-04T09:43:21;23.00;99.90
26262;DHT22;13988;52.446;13.280;2022-07-04T09:46:13;22.80;99.90
26262;DHT22;13988;52.446;13.280;2022-07-04T09:48:50;23.00;99.90
26262;DHT22;13988;52.446;13.280;2022-07-04T09:54:17;22.50;99.90
26262;DHT22;13988;52.446;13.280;2022-07-04T09:56:48;23.50;99.90
26262;DHT22;13988;52.446;13.280;2022-07-04T09:59:15;23.50;99.90
26262;DHT22;13988;52.446;13.280;2022-07-04T10:01:42;23.50;99.90
26262;DHT22;13988;52.446;13.280;2022-07-04T10:04:08;23.00;99.90
26262;DHT22;13988;52.446;13.280;2022-07-04T10:06:37;23.70;99.90
26262;DHT22;13988;52.446;13.280;2022-07-04T10:11:36;23.50;99.90
26262;DHT22;13988;52.446;13.280;2022-07-04T10:14:04;22.50;99.90
26262;DHT22;13988;52.446;13.280;2022-07-04T10:16:31;22.40;99.90
26262;DHT22;13988;52.446;13.280;2022-07-04T10:18:57;22.50;99.90
26262;DHT22;13988;52.446;13.280;2022-07-04T10:21:23;22.90;99.90
26262;DHT22;13988;52.446;13.280;2022-07-04T10:23:52;23.40;99.90
26262;DHT22;13988;52.446;13.280;2022-07-04T10:26:21;23.60;99.90
26262;DHT22;13988;52.446;13.280;2022-07-04T10:28:51;24.00;99.90
26262;DHT22;13988;52.446;13.280;2022-07-04T10:31:22;24.00;98.00
26262;DHT22;13988;52.446;13.280;2022-07-04T10:33:49;24.10;97.40
26262;DHT22;13988;52.446;13.280;2022-07-04T10:36:21;23.80;94.90
26262;DHT22;13988;52.446;13.280;2022-07-04T10:38:52;23.10;98.10
26262;DHT22;13988;52.446;13.280;2022-07-04T10:41:20;23.00;98.10
26262;DHT22;13988;52.446;13.280;2022-07-04T10:44:03;23.50;98.00
26262;DHT22;13988;52.446;13.280;2022-07-04T10:49:27;24.30;93.60
26262;DHT22;13988;52.446;13.280;2022-07-04T10:52:11;24.50;94.40
26262;DHT22;13988;52.446;13.280;2022-07-04T10:54:41;24.50;95.30
26262;DHT22;13988;52.446;13.280;2022-07-04T10:59:34;24.70;93.90
26262;DHT22;13988;52.446;13.280;2022-07-04T11:04:51;24.90;92.60
26262;DHT22;13988;52.446;13.280;2022-07-04T11:17:58;25.30;88.30
26262;DHT22;13988;52.446;13.280;2022-07-04T11:20:26;25.50;86.50
26262;DHT22;13988;52.446;13.280;2022-07-04T11:22:52;25.40;81.60
26262;DHT22;13988;52.446;13.280;2022-07-04T11:25:18;25.60;88.30
26262;DHT22;13988;52.446;13.280;2022-07-04T11:27:44;26.10;82.90
26262;DHT22;13988;52.446;13.280;2022-07-04T11:30:11;26.40;77.00
26262;DHT22;13988;52.446;13.280;2022-07-04T11:32:37;25.90;81.30
26262;DHT22;13988;52.446;13.280;2022-07-04T11:35:05;26.40;78.50
26262;DHT22;13988;52.446;13.280;2022-07-04T11:37:31;26.60;74.90
26262;DHT22;13988;52.446;13.280;2022-07-04T11:39:57;26.70;77.10
26262;DHT22;13988;52.446;13.280;2022-07-04T11:43:04;26.40;76.20
26262;DHT22;13988;52.446;13.280;2022-07-04T11:45:49;25.50;78.00
26262;DHT22;13988;52.446;13.280;2022-07-04T11:48:27;25.30;80.40
26262;DHT22;13988;52.446;13.280;2022-07-04T11:50:54;26.50;80.90
26262;DHT22;13988;52.446;13.280;2022-07-04T11:53:20;27.50;74.40
26262;DHT22;13988;52.446;13.280;2022-07-04T11:55:53;26.80;75.10
26262;DHT22;13988;52.446;13.280;2022-07-04T11:58:19;25.90;75.40
26262;DHT22;13988;52.446;13.280;2022-07-04T12:00:44;24.40;79.30
26262;DHT22;13988;52.446;13.280;2022-07-04T12:03:10;24.30;79.70
26262;DHT22;13988;52.446;13.280;2022-07-04T12:05:36;25.60;78.50
26262;DHT22;13988;52.446;13.280;2022-07-04T12:08:03;26.70;77.40
26262;DHT22;13988;52.446;13.280;2022-07-04T12:10:31;27.90;73.50
26262;DHT22;13988;52.446;13.280;2022-07-04T12:15:46;27.50;69.70
26262;DHT22;13988;52.446;13.280;2022-07-04T12:18:20;27.50;68.40
26262;DHT22;13988;52.446;13.280;2022-07-04T12:20:48;28.00;67.80
26262;DHT22;13988;52.446;13.280;2022-07-04T12:23:15;27.50;66.50
26262;DHT22;13988;52.446;13.280;2022-07-04T12:25:43;27.80;67.30
26262;DHT22;13988;52.446;13.280;2022-07-04T12:28:11;28.60;64.00
26262;DHT22;13988;52.446;13.280;2022-07-04T12:30:39;28.90;58.70
26262;DHT22;13988;52.446;13.280;2022-07-04T12:33:09;27.90;61.90
26262;DHT22;13988;52.446;13.280;2022-07-04T12:35:44;27.10;62.90
26262;DHT22;13988;52.446;13.280;2022-07-04T12:41:02;27.20;64.50
26262;DHT22;13988;52.446;13.280;2022-07-04T12:48:52;27.40;63.10
26262;DHT22;13988;52.446;13.280;2022-07-04T12:51:20;27.90;59.60
26262;DHT22;13988;52.446;13.280;2022-07-04T12:53:48;27.50;58.60
26262;DHT22;13988;52.446;13.280;2022-07-04T12:58:55;28.20;57.40
26262;DHT22;13988;52.446;13.280;2022-07-04T13:01:21;26.10;58.90
26262;DHT22;13988;52.446;13.280;2022-07-04T13:03:46;27.30;58.20
26262;DHT22;13988;52.446;13.280;2022-07-04T13:06:12;27.40;56.20
26262;DHT22;13988;52.446;13.280;2022-07-04T13:08:38;27.50;58.80
26262;DHT22;13988;52.446;13.280;2022-07-04T13:11:03;28.70;57.10
26262;DHT22;13988;52.446;13.280;2022-07-04T13:13:47;29.20;57.70
26262;DHT22;13988;52.446;13.280;2022-07-04T13:16:13;29.50;54.10
26262;DHT22;13988;52.446;13.280;2022-07-04T13:18:39;28.60;54.90
26262;DHT22;13988;52.446;13.280;2022-07-04T13:21:05;26.90;57.40
26262;DHT22;13988;52.446;13.280;2022-07-04T13:23:30;27.40;56.40
26262;DHT22;13988;52.446;13.280;2022-07-04T13:25:56;27.30;55.60
26262;DHT22;13988;52.446;13.280;2022-07-04T13:28:21;27.40;56.90
26262;DHT22;13988;52.446;13.280;2022-07-04T13:30:47;27.20;56.70
26262;DHT22;13988;52.446;13.280;2022-07-04T13:33:12;27.40;55.60
26262;DHT22;13988;52.446;13.280;2022-07-04T13:35:38;27.80;56.40
26262;DHT22;13988;52.446;13.280;2022-07-04T13:38:04;27.30;57.70
26262;DHT22;13988;52.446;13.280;2022-07-04T13:40:29;27.90;56.30
26262;DHT22;13988;52.446;13.280;2022-07-04T13:42:55;28.30;55.30
26262;DHT22;13988;52.446;13.280;2022-07-04T13:45:25;28.40;54.70
26262;DHT22;13988;52.446;13.280;2022-07-04T13:47:51;27.90;55.40
26262;DHT22;13988;52.446;13.280;2022-07-04T13:50:17;27.60;55.60
26262;DHT22;13988;52.446;13.280;2022-07-04T13:52:43;28.00;55.40
26262;DHT22;13988;52.446;13.280;2022-07-04T13:55:10;28.20;53.20
26262;DHT22;13988;52.446;13.280;2022-07-04T13:57:36;28.00;52.80
26262;DHT22;13988;52.446;13.280;2022-07-04T14:00:03;28.10;53.70
26262;DHT22;13988;52.446;13.280;2022-07-04T14:02:29;26.90;54.40
26262;DHT22;13988;52.446;13.280;2022-07-04T14:04:55;28.20;54.00
26262;DHT22;13988;52.446;13.280;2022-07-04T14:07:21;27.50;55.10
26262;DHT22;13988;52.446;13.280;2022-07-04T14:09:47;28.60;54.50
26262;DHT22;13988;52.446;13.280;2022-07-04T14:12:13;28.50;53.90
26262;DHT22;13988;52.446;13.280;2022-07-04T14:14:39;28.10;54.70
26262;DHT22;13988;52.446;13.280;2022-07-04T14:17:05;27.80;54.90
26262;DHT22;13988;52.446;13.280;2022-07-04T14:19:30;26.90;58.60
26262;DHT22;13988;52.446;13.280;2022-07-04T14:21:56;27.00;58.70
26262;DHT22;13988;52.446;13.280;2022-07-04T14:24:21;27.90;56.80
26262;DHT22;13988;52.446;13.280;2022-07-04T14:26:47;28.30;53.40
26262;DHT22;13988;52.446;13.280;2022-07-04T14:29:13;27.40;56.20
26262;DHT22;13988;52.446;13.280;2022-07-04T14:31:39;27.90;52.90
26262;DHT22;13988;52.446;13.280;2022-07-04T14:34:05;27.40;54.30
26262;DHT22;13988;52.446;13.280;2022-07-04T14:36:32;26.80;55.00
26262;DHT22;13988;52.446;13.280;2022-07-04T14:38:58;26.70;55.10
26262;DHT22;13988;52.446;13.280;2022-07-04T14:41:24;26.30;56.00
26262;DHT22;13988;52.446;13.280;2022-07-04T14:43:52;25.50;54.40
26262;DHT22;13988;52.446;13.280;2022-07-04T14:46:19;25.90;54.90
26262;DHT22;13988;52.446;13.280;2022-07-04T14:48:45;26.20;55.20
26262;DHT22;13988;52.446;13.280;2022-07-04T14:51:11;26.50;55.80
26262;DHT22;13988;52.446;13.280;2022-07-04T14:53:36;25.60;58.00
26262;DHT22;13988;52.446;13.280;2022-07-04T14:56:02;26.40;56.20
26262;DHT22;13988;52.446;13.280;2022-07-04T14:58:29;25.70;57.70
26262;DHT22;13988;52.446;13.280;2022-07-04T15:00:55;25.90;54.70
26262;DHT22;13988;52.446;13.280;2022-07-04T15:03:21;26.40;55.10
26262;DHT22;13988;52.446;13.280;2022-07-04T15:05:47;26.10;55.90
26262;DHT22;13988;52.446;13.280;2022-07-04T15:08:13;26.10;56.50
26262;DHT22;13988;52.446;13.280;2022-07-04T15:10:39;26.50;58.30
26262;DHT22;13988;52.446;13.280;2022-07-04T15:13:05;26.60;55.80
26262;DHT22;13988;52.446;13.280;2022-07-04T15:15:31;26.50;54.00
26262;DHT22;13988;52.446;13.280;2022-07-04T15:17:56;26.30;56.50
26262;DHT22;13988;52.446;13.280;2022-07-04T15:20:22;26.50;57.00
26262;DHT22;13988;52.446;13.280;2022-07-04T15:23:06;27.00;54.20
26262;DHT22;13988;52.446;13.280;2022-07-04T15:25:50;27.20;55.80
26262;DHT22;13988;52.446;13.280;2022-07-04T15:28:16;26.80;54.50
26262;DHT22;13988;52.446;13.280;2022-07-04T15:30:41;26.30;55.50
26262;DHT22;13988;52.446;13.280;2022-07-04T15:33:07;26.60;57.70
26262;DHT22;13988;52.446;13.280;2022-07-04T15:35:37;26.90;55.60
26262;DHT22;13988;52.446;13.280;2022-07-04T15:38:02;26.30;56.10
26262;DHT22;13988;52.446;13.280;2022-07-04T15:40:28;25.90;57.80
26262;DHT22;13988;52.446;13.280;2022-07-04T15:42:54;26.00;57.40
26262;DHT22;13988;52.446;13.280;2022-07-04T15:45:19;26.10;56.40
26262;DHT22;13988;52.446;13.280;2022-07-04T15:47:45;26.20;57.00
26262;DHT22;13988;52.446;13.280;2022-07-04T15:50:10;25.90;57.70
26262;DHT22;13988;52.446;13.280;2022-07-04T15:52:36;25.50;58.00